createdAt,value
2023-01-18T00:01:15.455Z,77.90
2023-01-18T00:03:42.386Z,77.90
2023-01-18T00:06:11.058Z,78.00
2023-01-18T00:08:39.564Z,77.90
2023-01-18T00:11:12.126Z,78.00
2023-01-18T00:13:39.504Z,78.00
2023-01-18T00:16:10.202Z,78.00
2023-01-18T00:18:37.411Z,78.10
2023-01-18T00:21:06.437Z,78.10
2023-01-18T00:23:36.360Z,78.20
2023-01-18T00:26:06.532Z,78.10
2023-01-18T00:28:33.801Z,78.20
2023-01-18T00:31:00.748Z,78.10
2023-01-18T00:33:29.328Z,78.20
2023-01-18T00:35:58.029Z,78.20
2023-01-18T00:38:25.419Z,78.20
2023-01-18T00:40:52.415Z,78.10
2023-01-18T00:43:37.972Z,78.20
2023-01-18T00:46:10.239Z,78.20
2023-01-18T00:48:39.048Z,78.20
2023-01-18T00:51:07.228Z,78.20
2023-01-18T00:53:34.289Z,78.30
2023-01-18T00:56:01.128Z,78.40
2023-01-18T00:58:29.089Z,78.40
2023-01-18T01:00:55.864Z,78.40
2023-01-18T01:03:22.682Z,78.40
2023-01-18T01:06:07.894Z,78.40
2023-01-18T01:08:34.694Z,78.40
2023-01-18T01:11:08.610Z,78.50
2023-01-18T01:13:54.998Z,78.50
2023-01-18T01:16:40.529Z,78.50
2023-01-18T01:19:25.982Z,78.50
2023-01-18T01:22:11.665Z,78.50
2023-01-18T01:24:56.880Z,78.50
2023-01-18T01:27:23.643Z,78.50
2023-01-18T01:29:54.631Z,78.50
2023-01-18T01:32:21.431Z,78.50
2023-01-18T01:34:51.229Z,78.50
2023-01-18T01:37:17.956Z,78.60
2023-01-18T01:39:44.650Z,78.60
2023-01-18T01:42:11.928Z,78.70
2023-01-18T01:44:44.182Z,78.70
2023-01-18T01:47:28.816Z,78.70
2023-01-18T01:50:02.317Z,78.80
2023-01-18T01:52:36.187Z,78.70
2023-01-18T01:55:15.528Z,78.70
2023-01-18T01:58:02.057Z,78.60
2023-01-18T02:00:32.710Z,78.70
2023-01-18T02:03:05.556Z,78.70
2023-01-18T02:05:39.092Z,78.70
2023-01-18T02:08:11.376Z,78.70
2023-01-18T02:10:39.169Z,78.70
2023-01-18T02:13:08.708Z,78.70
2023-01-18T02:15:48.481Z,78.70
2023-01-18T02:18:55.778Z,78.80
2023-01-18T02:21:56.523Z,78.80
2023-01-18T02:24:35.514Z,78.80
2023-01-18T02:27:04.914Z,78.80
2023-01-18T02:29:57.826Z,79.70
2023-01-18T02:32:43.462Z,78.80
2023-01-18T02:35:22.652Z,78.80
2023-01-18T02:38:38.934Z,78.90
2023-01-18T02:41:51.947Z,78.90
2023-01-18T02:44:48.443Z,78.90
2023-01-18T02:47:16.715Z,79.00
2023-01-18T02:49:43.472Z,78.90
2023-01-18T02:52:42.285Z,78.90
2023-01-18T02:55:18.072Z,79.00
2023-01-18T02:57:45.950Z,79.00
2023-01-18T03:00:17.559Z,79.00
2023-01-18T03:02:47.266Z,79.00
2023-01-18T03:05:14.400Z,79.00
2023-01-18T03:08:06.363Z,79.20
2023-01-18T03:10:36.652Z,79.10
2023-01-18T03:13:12.962Z,79.10
2023-01-18T03:15:55.986Z,79.10
2023-01-18T03:19:00.442Z,79.10
2023-01-18T03:21:41.812Z,79.10
2023-01-18T03:24:10.961Z,79.10
2023-01-18T03:26:47.118Z,79.10
2023-01-18T03:29:37.279Z,79.20
2023-01-18T03:32:35.744Z,79.20
2023-01-18T03:35:09.036Z,79.20
2023-01-18T03:37:43.133Z,79.30
2023-01-18T03:40:21.538Z,79.30
2023-01-18T03:43:11.795Z,79.20
2023-01-18T03:45:46.576Z,79.30
2023-01-18T03:48:14.028Z,79.30
2023-01-18T03:51:06.104Z,79.30
2023-01-18T03:53:54.502Z,79.30
2023-01-18T03:56:34.750Z,79.30
2023-01-18T03:59:04.010Z,79.30
2023-01-18T04:01:31.504Z,79.40
2023-01-18T04:03:58.431Z,79.30
2023-01-18T04:06:25.741Z,79.30
2023-01-18T04:08:53.020Z,79.30
2023-01-18T04:11:19.932Z,79.40
2023-01-18T04:13:46.673Z,79.40
2023-01-18T04:16:13.593Z,79.40
2023-01-18T04:18:40.476Z,79.50
2023-01-18T04:21:07.297Z,79.40
2023-01-18T04:23:34.046Z,79.40
2023-01-18T04:26:01.140Z,79.40
2023-01-18T04:28:28.009Z,79.40
2023-01-18T04:30:57.218Z,79.50
2023-01-18T04:33:26.678Z,79.50
2023-01-18T04:35:54.407Z,79.50
2023-01-18T04:38:21.711Z,79.50
2023-01-18T04:40:49.074Z,79.50
2023-01-18T04:43:16.086Z,79.50
2023-01-18T04:45:42.980Z,79.50
2023-01-18T04:48:09.788Z,79.70
2023-01-18T04:50:38.905Z,79.60
2023-01-18T04:53:05.699Z,79.60
2023-01-18T04:55:32.528Z,79.60
2023-01-18T04:57:59.432Z,79.70
2023-01-18T05:00:26.196Z,79.70
2023-01-18T05:02:53.082Z,79.70
2023-01-18T05:05:19.869Z,79.70
2023-01-18T05:07:46.682Z,79.70
2023-01-18T05:10:13.530Z,79.80
2023-01-18T05:12:40.279Z,79.80
2023-01-18T05:15:08.150Z,79.90
2023-01-18T05:17:35.238Z,79.90
2023-01-18T05:20:04.516Z,79.90
2023-01-18T05:22:32.995Z,79.80
2023-01-18T05:25:00.555Z,79.90
2023-01-18T05:27:30.495Z,79.90
2023-01-18T05:29:57.541Z,79.80
2023-01-18T05:32:24.730Z,79.80
2023-01-18T05:34:51.687Z,79.80
2023-01-18T05:37:18.536Z,79.80
2023-01-18T05:39:54.349Z,79.90
2023-01-18T05:42:21.037Z,79.90
2023-01-18T05:44:48.064Z,79.90
2023-01-18T05:47:14.910Z,80.00
2023-01-18T05:49:42.079Z,80.00
2023-01-18T05:52:09.139Z,80.00
2023-01-18T05:54:36.048Z,80.10
2023-01-18T05:57:02.839Z,80.10
2023-01-18T05:59:29.563Z,80.10
2023-01-18T06:01:56.593Z,80.10
2023-01-18T06:04:26.154Z,80.10
2023-01-18T06:06:52.896Z,80.10
2023-01-18T06:09:19.769Z,80.10
2023-01-18T06:11:46.460Z,80.10
2023-01-18T06:14:13.354Z,80.20
2023-01-18T06:16:40.168Z,80.10
2023-01-18T06:19:06.959Z,80.20
2023-01-18T06:21:33.781Z,80.20
2023-01-18T06:24:00.550Z,80.20
2023-01-18T06:26:27.337Z,81.00
2023-01-18T06:28:56.585Z,80.20
2023-01-18T06:31:23.775Z,80.20
2023-01-18T06:33:50.509Z,80.20
2023-01-18T06:36:17.598Z,80.20
2023-01-18T06:38:44.424Z,80.20
2023-01-18T06:41:11.262Z,80.20
2023-01-18T06:43:40.764Z,80.20
2023-01-18T06:46:09.341Z,80.30
2023-01-18T06:48:36.421Z,80.20
2023-01-18T06:51:03.439Z,80.30
2023-01-18T06:53:30.624Z,80.30
2023-01-18T06:55:59.004Z,80.40
2023-01-18T06:58:26.911Z,80.40
2023-01-18T07:00:58.407Z,80.40
2023-01-18T07:03:27.085Z,80.30
2023-01-18T07:05:58.952Z,80.40
2023-01-18T07:08:27.044Z,80.40
2023-01-18T07:10:55.188Z,80.40
2023-01-18T07:13:22.162Z,80.50
2023-01-18T07:16:01.101Z,80.40
2023-01-18T07:18:30.058Z,80.40
2023-01-18T07:21:07.198Z,80.40
2023-01-18T07:23:35.814Z,80.50
2023-01-18T07:26:04.664Z,80.40
2023-01-18T07:28:32.794Z,80.40
2023-01-18T07:30:59.996Z,80.40
2023-01-18T07:33:27.654Z,80.40
2023-01-18T07:35:56.288Z,80.40
2023-01-18T07:38:26.621Z,80.50
2023-01-18T07:41:11.301Z,80.50
2023-01-18T07:43:38.258Z,80.60
2023-01-18T07:46:07.084Z,80.50
2023-01-18T07:48:34.530Z,80.60
2023-01-18T07:51:03.975Z,80.60
2023-01-18T07:53:32.834Z,80.50
2023-01-18T07:56:00.922Z,80.60
2023-01-18T07:58:28.568Z,80.60
2023-01-18T08:00:55.542Z,80.60
2023-01-18T08:03:22.597Z,80.70
2023-01-18T08:05:49.442Z,80.60
2023-01-18T08:08:17.893Z,80.60
2023-01-18T08:10:44.953Z,80.60
2023-01-18T08:13:11.948Z,80.60
2023-01-18T08:15:39.263Z,80.80
2023-01-18T08:18:07.470Z,80.70
2023-01-18T08:20:37.824Z,80.80
2023-01-18T08:23:04.527Z,80.70
2023-01-18T08:25:35.495Z,80.90
2023-01-18T08:28:06.198Z,80.80
2023-01-18T08:30:40.560Z,80.90
2023-01-18T08:33:09.533Z,81.00
2023-01-18T08:35:53.484Z,80.90
2023-01-18T08:38:22.587Z,80.90
2023-01-18T08:40:49.551Z,80.80
2023-01-18T08:43:17.244Z,80.80
2023-01-18T08:45:43.990Z,80.80
2023-01-18T08:48:11.515Z,80.90
2023-01-18T08:50:42.977Z,80.90
2023-01-18T08:53:13.365Z,80.80
2023-01-18T08:55:40.870Z,80.90
2023-01-18T08:58:08.255Z,81.10
2023-01-18T09:00:35.075Z,81.70
2023-01-18T09:03:03.616Z,82.60
2023-01-18T09:05:30.591Z,82.60
2023-01-18T09:08:01.791Z,81.80
2023-01-18T09:10:30.931Z,81.10
2023-01-18T09:12:58.236Z,80.10
2023-01-18T09:15:27.873Z,79.00
2023-01-18T09:17:58.922Z,78.00
2023-01-18T09:20:28.590Z,77.20
2023-01-18T09:22:56.410Z,76.40
2023-01-18T09:25:24.620Z,76.00
2023-01-18T09:27:52.475Z,76.00
2023-01-18T09:30:19.251Z,76.00
2023-01-18T09:32:46.448Z,76.10
2023-01-18T09:35:18.044Z,76.60
2023-01-18T09:37:46.040Z,77.00
2023-01-18T09:40:18.752Z,77.30
2023-01-18T09:42:47.395Z,77.80
2023-01-18T09:45:31.882Z,78.20
2023-01-18T09:48:05.665Z,78.30
2023-01-18T09:50:45.325Z,78.80
2023-01-18T09:53:50.693Z,78.90
2023-01-18T09:56:27.801Z,79.00
2023-01-18T09:59:06.324Z,79.20
2023-01-18T10:01:35.417Z,79.20
2023-01-18T10:04:17.362Z,79.30
2023-01-18T10:06:52.692Z,79.50
2023-01-18T10:09:41.870Z,79.60
2023-01-18T10:12:37.782Z,79.60
2023-01-18T10:15:23.016Z,79.60
2023-01-18T10:17:56.722Z,79.70
2023-01-18T10:20:35.251Z,79.70
2023-01-18T10:23:17.603Z,79.80
2023-01-18T10:25:52.535Z,79.90
2023-01-18T10:28:33.082Z,79.80
2023-01-18T10:31:37.582Z,79.70
2023-01-18T10:34:23.426Z,79.70
2023-01-18T10:37:02.176Z,80.00
2023-01-18T10:39:39.967Z,79.90
2023-01-18T10:42:19.680Z,79.90
2023-01-18T10:44:46.468Z,79.90
2023-01-18T10:47:18.340Z,79.80
2023-01-18T10:49:48.795Z,79.80
2023-01-18T10:52:30.072Z,79.80
2023-01-18T10:55:02.578Z,79.80
2023-01-18T10:57:43.287Z,79.70
2023-01-18T11:00:37.189Z,79.90
2023-01-18T11:03:05.879Z,79.70
2023-01-18T11:05:39.212Z,79.90
2023-01-18T11:08:24.059Z,80.00
2023-01-18T11:12:09.350Z,80.00
2023-01-18T11:14:39.175Z,80.10
2023-01-18T11:17:11.019Z,80.10
2023-01-18T11:19:39.018Z,80.00
2023-01-18T11:22:13.279Z,80.00
2023-01-18T11:24:40.342Z,80.00
2023-01-18T11:27:23.268Z,79.90
2023-01-18T11:29:50.770Z,80.00
2023-01-18T11:32:25.527Z,79.90
2023-01-18T11:34:58.126Z,79.60
2023-01-18T11:37:30.654Z,79.70
2023-01-18T11:39:58.029Z,79.60
2023-01-18T11:42:30.240Z,79.60
2023-01-18T11:45:44.027Z,79.60
2023-01-18T11:48:30.686Z,79.70
2023-01-18T11:51:02.847Z,79.70
2023-01-18T11:53:57.963Z,79.60
2023-01-18T11:56:31.187Z,79.70
2023-01-18T11:58:58.375Z,79.30
2023-01-18T12:01:53.022Z,79.30
2023-01-18T12:04:47.920Z,79.50
2023-01-18T12:07:59.465Z,79.40
2023-01-18T12:10:34.033Z,79.10
2023-01-18T12:13:18.956Z,79.00
2023-01-18T12:16:10.524Z,79.10
2023-01-18T12:18:58.936Z,78.80
2023-01-18T12:21:25.597Z,78.60
2023-01-18T12:23:55.429Z,78.70
2023-01-18T12:26:43.900Z,78.60
2023-01-18T12:29:20.524Z,78.40
2023-01-18T12:32:08.727Z,78.50
2023-01-18T12:34:46.395Z,78.60
2023-01-18T12:37:24.079Z,78.50
2023-01-18T12:40:16.757Z,78.00
2023-01-18T12:43:07.580Z,78.00
2023-01-18T12:45:41.593Z,77.90
2023-01-18T12:48:50.245Z,77.90
2023-01-18T12:51:21.232Z,77.90
2023-01-18T12:54:03.365Z,78.00
2023-01-18T12:56:40.828Z,77.90
2023-01-18T12:59:18.363Z,77.90
2023-01-18T13:01:51.981Z,77.70
2023-01-18T13:04:52.799Z,77.40
2023-01-18T13:07:29.099Z,77.50
2023-01-18T13:09:57.100Z,78.00
2023-01-18T13:12:25.710Z,77.90
2023-01-18T13:15:17.851Z,77.80
2023-01-18T13:18:07.958Z,77.90
2023-01-18T13:20:56.344Z,77.80
2023-01-18T13:23:34.784Z,77.80
2023-01-18T13:26:14.646Z,77.90
2023-01-18T13:28:44.844Z,77.70
2023-01-18T13:31:12.161Z,77.50
2023-01-18T13:33:46.982Z,77.40
2023-01-18T13:36:21.804Z,77.20
2023-01-18T13:38:58.170Z,76.70
2023-01-18T13:41:27.357Z,76.80
2023-01-18T13:44:27.172Z,76.80
2023-01-18T13:46:59.139Z,76.80
2023-01-18T13:49:45.041Z,76.10
2023-01-18T13:52:35.608Z,76.10
2023-01-18T13:55:05.855Z,76.20
2023-01-18T13:57:34.515Z,76.30
2023-01-18T14:00:02.465Z,76.80
2023-01-18T14:02:42.410Z,77.10
2023-01-18T14:05:25.974Z,77.00
2023-01-18T14:07:57.463Z,76.70
2023-01-18T14:10:36.443Z,76.20
2023-01-18T14:13:07.944Z,75.10
2023-01-18T14:15:43.617Z,74.00
2023-01-18T14:18:21.363Z,73.90
2023-01-18T14:21:14.705Z,73.90
2023-01-18T14:23:58.509Z,74.30
2023-01-18T14:26:30.166Z,74.60
2023-01-18T14:29:04.808Z,74.80
2023-01-18T14:31:37.480Z,74.60
2023-01-18T14:34:25.953Z,74.60
2023-01-18T14:36:52.999Z,74.80
2023-01-18T14:39:21.735Z,74.70
2023-01-18T14:41:55.389Z,74.60
2023-01-18T14:44:27.501Z,74.70
2023-01-18T14:46:57.188Z,74.60
2023-01-18T14:49:38.669Z,74.70
2023-01-18T14:52:08.573Z,74.70
2023-01-18T14:54:35.559Z,74.80
2023-01-18T14:57:04.598Z,74.80
2023-01-18T14:59:33.277Z,74.90
2023-01-18T15:02:17.259Z,74.80
2023-01-18T15:04:45.767Z,74.70
2023-01-18T15:07:30.808Z,74.80
2023-01-18T15:09:58.737Z,74.80
2023-01-18T15:12:31.306Z,74.90
2023-01-18T15:15:23.149Z,74.80
2023-01-18T15:17:50.569Z,75.00
2023-01-18T15:20:17.367Z,74.90
2023-01-18T15:22:44.653Z,74.90
2023-01-18T15:25:27.774Z,74.60
2023-01-18T15:27:58.043Z,74.80
2023-01-18T15:30:25.663Z,75.00
2023-01-18T15:32:57.935Z,74.90
2023-01-18T15:37:57.868Z,74.90
2023-01-18T15:40:27.625Z,75.00
2023-01-18T15:43:15.423Z,75.00
2023-01-18T15:45:49.555Z,74.90
2023-01-18T15:48:22.645Z,75.00
2023-01-18T15:50:54.725Z,75.00
2023-01-18T15:53:32.283Z,75.00
2023-01-18T15:56:04.270Z,75.10
2023-01-18T15:58:40.148Z,75.00
2023-01-18T16:01:13.198Z,75.10
2023-01-18T16:03:48.678Z,75.10
2023-01-18T16:06:18.856Z,75.20
2023-01-18T16:09:13.747Z,75.20
2023-01-18T16:11:51.825Z,75.20
2023-01-18T16:14:36.435Z,75.40
2023-01-18T16:17:12.701Z,75.40
2023-01-18T16:19:55.967Z,75.40
2023-01-18T16:22:25.517Z,75.50
2023-01-18T16:25:09.359Z,75.50
2023-01-18T16:27:48.648Z,75.40
2023-01-18T16:30:21.489Z,75.60
2023-01-18T16:32:51.529Z,75.60
2023-01-18T16:35:21.529Z,75.70
2023-01-18T16:37:49.119Z,75.70
2023-01-18T16:40:20.370Z,75.80
2023-01-18T16:43:03.821Z,75.80
2023-01-18T16:45:34.070Z,75.90
2023-01-18T16:48:01.394Z,75.80
2023-01-18T16:50:28.821Z,75.90
2023-01-18T16:52:55.959Z,76.00
2023-01-18T16:55:22.845Z,76.00
2023-01-18T16:57:51.648Z,76.00
2023-01-18T17:00:21.790Z,76.10
2023-01-18T17:02:49.248Z,76.10
2023-01-18T17:05:17.123Z,76.20
2023-01-18T17:07:44.496Z,76.30
2023-01-18T17:10:36.188Z,76.30
2023-01-18T17:13:03.395Z,76.30
2023-01-18T17:15:32.435Z,76.30
2023-01-18T17:17:59.233Z,76.40
2023-01-18T17:20:27.285Z,76.40
2023-01-18T17:22:55.688Z,76.40
2023-01-18T17:25:24.000Z,76.40
2023-01-18T17:27:51.580Z,76.50
2023-01-18T17:30:21.208Z,76.50
2023-01-18T17:32:51.802Z,76.50
2023-01-18T17:35:21.826Z,76.60
2023-01-18T17:37:54.464Z,76.60
2023-01-18T17:40:38.681Z,77.40
2023-01-18T17:43:10.458Z,76.60
2023-01-18T17:45:37.200Z,76.70
2023-01-18T17:48:04.106Z,76.70
2023-01-18T17:50:30.804Z,76.80
2023-01-18T17:53:01.007Z,76.80
2023-01-18T17:55:34.667Z,76.80
2023-01-18T17:58:02.398Z,76.80
2023-01-18T18:00:29.359Z,77.00
2023-01-18T18:02:57.389Z,77.00
2023-01-18T18:05:25.211Z,77.00
2023-01-18T18:07:51.979Z,76.90
2023-01-18T18:10:21.465Z,77.00
2023-01-18T18:12:48.478Z,77.00
2023-01-18T18:15:15.332Z,77.00
2023-01-18T18:17:42.221Z,77.00
2023-01-18T18:20:10.957Z,77.10
2023-01-18T18:22:38.300Z,77.20
2023-01-18T18:25:06.676Z,77.20
2023-01-18T18:27:45.169Z,77.20
2023-01-18T18:30:13.252Z,77.20
2023-01-18T18:32:40.166Z,77.20
2023-01-18T18:35:23.029Z,77.20
2023-01-18T18:37:52.071Z,77.20
2023-01-18T18:40:19.407Z,77.20
2023-01-18T18:42:56.450Z,77.20
2023-01-18T18:45:28.214Z,77.20
2023-01-18T18:47:55.069Z,77.30
2023-01-18T18:50:28.262Z,77.20
2023-01-18T18:52:55.215Z,77.30
2023-01-18T18:55:22.061Z,77.20
2023-01-18T18:57:48.994Z,77.30
2023-01-18T19:00:16.369Z,77.20
2023-01-18T19:02:43.289Z,77.30
2023-01-18T19:05:13.129Z,77.30
2023-01-18T19:07:40.050Z,77.30
2023-01-18T19:10:07.229Z,77.40
2023-01-18T19:12:34.191Z,77.40
2023-01-18T19:15:01.117Z,77.40
2023-01-18T19:17:31.617Z,77.50
2023-01-18T19:19:58.903Z,77.50
2023-01-18T19:22:28.702Z,78.40
2023-01-18T19:24:55.502Z,77.60
2023-01-18T19:27:24.530Z,77.70
2023-01-18T19:29:53.573Z,77.70
2023-01-18T19:32:20.667Z,77.80
2023-01-18T19:34:47.367Z,77.80
2023-01-18T19:37:14.236Z,77.80
2023-01-18T19:39:40.959Z,77.80
2023-01-18T19:42:08.886Z,77.80
2023-01-18T19:44:35.657Z,77.80
2023-01-18T19:47:03.443Z,77.80
2023-01-18T19:49:30.627Z,77.90
2023-01-18T19:51:57.423Z,77.80
2023-01-18T19:54:27.439Z,77.80
2023-01-18T19:56:54.239Z,77.90
2023-01-18T19:59:21.122Z,78.00
2023-01-18T20:02:25.086Z,78.00
2023-01-18T20:05:45.057Z,77.90
2023-01-18T20:08:18.043Z,78.00
2023-01-18T20:10:44.950Z,78.10
2023-01-18T20:13:14.476Z,78.10
2023-01-18T20:15:42.187Z,78.30
2023-01-18T20:18:09.174Z,78.20
2023-01-18T20:20:36.287Z,78.30
2023-01-18T20:23:04.378Z,78.30
2023-01-18T20:25:32.661Z,78.30
2023-01-18T20:27:59.847Z,78.40
2023-01-18T20:30:27.034Z,78.50
2023-01-18T20:32:53.722Z,78.60
2023-01-18T20:35:20.829Z,78.50
2023-01-18T20:37:47.806Z,78.70
2023-01-18T20:40:14.651Z,78.70
2023-01-18T20:42:41.681Z,78.60
2023-01-18T20:45:09.278Z,78.70
2023-01-18T20:47:36.427Z,78.80
2023-01-18T20:50:04.227Z,78.70
2023-01-18T20:52:30.934Z,78.80
2023-01-18T20:54:57.604Z,78.80
2023-01-18T20:57:27.177Z,78.80
2023-01-18T20:59:54.344Z,78.90
2023-01-18T21:02:21.160Z,78.90
2023-01-18T21:04:47.968Z,78.90
2023-01-18T21:07:14.735Z,79.00
2023-01-18T21:09:41.476Z,79.00
2023-01-18T21:12:08.491Z,79.20
2023-01-18T21:14:35.337Z,79.20
2023-01-18T21:17:02.225Z,79.20
2023-01-18T21:19:29.348Z,79.30
2023-01-18T21:21:56.260Z,79.30
2023-01-18T21:24:23.089Z,79.30
2023-01-18T21:26:49.908Z,79.30
2023-01-18T21:29:19.587Z,79.40
2023-01-18T21:31:46.488Z,79.40
2023-01-18T21:34:13.355Z,79.50
2023-01-18T21:36:40.116Z,79.40
2023-01-18T21:39:07.000Z,79.50
2023-01-18T21:42:06.526Z,79.50
2023-01-18T21:44:54.841Z,79.70
2023-01-18T21:47:22.130Z,79.70
2023-01-18T21:50:22.995Z,79.70
2023-01-18T21:53:11.401Z,80.00
2023-01-18T21:55:40.182Z,79.80
2023-01-18T21:58:25.820Z,80.00
2023-01-18T22:00:52.762Z,79.90
2023-01-18T22:03:22.836Z,79.90
2023-01-18T22:05:52.321Z,80.00
2023-01-18T22:08:19.021Z,80.00
2023-01-18T22:10:47.679Z,80.80
2023-01-18T22:13:14.758Z,80.00
2023-01-18T22:15:45.700Z,80.00
2023-01-18T22:18:12.480Z,80.10
2023-01-18T22:20:40.492Z,80.10
2023-01-18T22:23:07.255Z,80.20
2023-01-18T22:25:34.301Z,80.30
2023-01-18T22:28:01.361Z,80.40
2023-01-18T22:30:28.706Z,80.40
2023-01-18T22:32:55.504Z,80.50
2023-01-18T22:35:22.296Z,80.50
2023-01-18T22:37:49.019Z,80.50
2023-01-18T22:40:16.030Z,80.40
2023-01-18T22:42:45.578Z,80.60
2023-01-18T22:45:12.270Z,81.40
2023-01-18T22:47:38.962Z,80.60
2023-01-18T22:50:06.193Z,80.60
2023-01-18T22:52:33.167Z,80.60
2023-01-18T22:54:59.907Z,80.70
2023-01-18T22:57:26.716Z,80.70
2023-01-18T22:59:53.481Z,80.60
2023-01-18T23:02:20.406Z,80.90
2023-01-18T23:04:48.517Z,80.80
2023-01-18T23:07:16.229Z,80.80
2023-01-18T23:09:45.981Z,80.80
2023-01-18T23:12:12.672Z,80.80
2023-01-18T23:15:00.048Z,80.80
2023-01-18T23:17:38.932Z,80.90
2023-01-18T23:20:11.692Z,81.00
2023-01-18T23:22:38.398Z,81.00
2023-01-18T23:25:08.399Z,81.00
2023-01-18T23:27:35.081Z,81.10
2023-01-18T23:30:02.585Z,81.10
2023-01-18T23:32:32.202Z,81.10
2023-01-18T23:34:59.983Z,81.10
2023-01-18T23:37:27.253Z,81.20
2023-01-18T23:40:12.827Z,81.10
2023-01-18T23:42:58.195Z,81.20
2023-01-18T23:45:43.945Z,81.20
2023-01-18T23:48:39.388Z,81.40
2023-01-18T23:51:27.202Z,81.30
2023-01-18T23:54:13.619Z,81.20
2023-01-18T23:56:44.182Z,81.30
2023-01-18T23:59:11.109Z,81.30
